Time;durP1;ratioP1;P1;durP2;ratioP2;P2;SDS_P1;SDS_P2;PMS_P1;PMS_P2;Temp;Humidity;BMP_temperature;BMP_pressure;BME280_temperature;BME280_humidity;BME280_pressure;Samples;Min_cycle;Max_cycle;Signal;HPM_P1;HPM_P2
2023/04/14 00:01:18;;;;;;;14.85;6.82;;;;;;;7.48;100.00;97357.97;3241429;22;20019;-83
2023/04/14 00:02:36;;;;;;;14.02;6.38;;;;;;;7.77;100.00;97352.69;3242283;22;20467;-84
2023/04/14 00:03:51;;;;;;;12.93;6.10;;;;;;;7.77;100.00;97352.69;3241997;22;20016;-83
2023/04/14 00:05:07;;;;;;;11.73;6.22;;;;;;;7.97;100.00;97358.97;3240946;22;20534;-83
2023/04/14 00:06:23;;;;;;;15.25;6.60;;;;;;;7.80;100.00;97352.59;3241690;22;20024;-85
2023/04/14 00:07:38;;;;;;;13.75;6.32;;;;;;;7.82;100.00;97355.13;3241771;22;20352;-85
2023/04/14 00:08:54;;;;;;;15.70;6.60;;;;;;;7.72;100.00;97365.88;3240738;22;20478;-83
2023/04/14 00:10:10;;;;;;;14.95;6.07;;;;;;;7.82;100.00;97365.53;3224091;23;20106;-83
2023/04/14 00:11:26;;;;;;;16.63;6.60;;;;;;;7.81;100.00;97367.31;3230452;22;20020;-83
2023/04/14 00:12:41;;;;;;;19.80;7.05;;;;;;;7.91;100.00;97371.31;3241629;22;20015;-83
2023/04/14 00:13:57;;;;;;;16.50;7.65;;;;;;;7.90;100.00;97364.41;3240867;22;20387;-83
2023/04/14 00:15:12;;;;;;;14.23;6.88;;;;;;;7.83;100.00;97369.88;3241138;22;20020;-83
2023/04/14 00:16:31;;;;;;;17.08;7.13;;;;;;;7.78;100.00;97376.09;3240698;22;20138;-83
2023/04/14 00:17:46;;;;;;;14.63;6.45;;;;;;;7.66;100.00;97378.25;3241030;22;20019;-83
2023/04/14 00:19:02;;;;;;;14.05;6.03;;;;;;;7.68;100.00;97376.44;3240721;22;20023;-83
2023/04/14 00:20:17;;;;;;;13.35;5.82;;;;;;;7.58;100.00;97381.94;3242186;22;20027;-84
2023/04/14 00:21:33;;;;;;;10.48;4.80;;;;;;;7.54;100.00;97384.72;3240448;22;20085;-83
2023/04/14 00:22:49;;;;;;;11.07;5.30;;;;;;;7.59;100.00;97386.25;3240822;22;20035;-83
2023/04/14 00:24:04;;;;;;;11.73;4.97;;;;;;;7.67;100.00;97387.78;3240690;22;20024;-83
2023/04/14 00:25:20;;;;;;;11.63;5.03;;;;;;;7.65;100.00;97389.59;3241989;22;20455;-83
2023/04/14 00:26:35;;;;;;;12.50;5.18;;;;;;;7.80;100.00;97388.19;3240813;22;20027;-84
2023/04/14 00:27:51;;;;;;;12.68;6.00;;;;;;;7.74;100.00;97392.72;3241627;22;20015;-83
2023/04/14 00:29:06;;;;;;;12.88;5.70;;;;;;;7.76;100.00;97383.09;3240582;22;20027;-83
2023/04/14 00:30:22;;;;;;;10.73;5.60;;;;;;;7.59;100.00;97390.63;3238323;22;20020;-83
2023/04/14 00:31:37;;;;;;;10.65;4.70;;;;;;;7.58;100.00;97389.78;3240843;22;20016;-84
2023/04/14 00:32:53;;;;;;;10.23;5.03;;;;;;;7.49;100.00;97392.69;3240613;22;20298;-83
2023/04/14 00:34:08;;;;;;;10.25;5.20;;;;;;;7.66;100.00;97394.72;3241506;22;20077;-85
2023/04/14 00:35:24;;;;;;;10.57;4.68;;;;;;;7.69;100.00;97392.03;3241306;22;20034;-82
2023/04/14 00:36:39;;;;;;;7.57;4.15;;;;;;;7.73;100.00;97393.63;3240880;22;20019;-83
2023/04/14 00:37:57;;;;;;;10.48;4.82;;;;;;;7.75;100.00;97397.03;3241026;22;20024;-83
2023/04/14 00:39:12;;;;;;;10.63;4.50;;;;;;;7.75;100.00;97397.03;3240746;22;20020;-83
2023/04/14 00:40:28;;;;;;;8.85;4.40;;;;;;;7.83;100.00;97401.16;3240532;22;20031;-83
2023/04/14 00:41:44;;;;;;;9.15;4.78;;;;;;;7.90;100.00;97393.06;3240939;22;20047;-83
2023/04/14 00:43:00;;;;;;;9.25;4.55;;;;;;;7.90;100.00;97403.50;3240548;22;20020;-83
2023/04/14 00:44:15;;;;;;;12.02;5.03;;;;;;;7.91;100.00;97404.34;3241260;22;20108;-83
2023/04/14 00:45:40;;;;;;;8.65;4.25;;;;;;;7.90;100.00;97406.09;3240534;22;20478;-83
2023/04/14 00:46:58;;;;;;;8.40;4.40;;;;;;;7.89;100.00;97412.22;3241371;22;20028;-83
2023/04/14 00:48:14;;;;;;;9.75;4.78;;;;;;;7.58;100.00;97415.81;3240649;22;20019;-83
2023/04/14 00:49:30;;;;;;;9.70;5.05;;;;;;;7.48;100.00;97407.47;3240874;22;20095;-83
2023/04/14 00:50:46;;;;;;;8.30;4.70;;;;;;;7.52;100.00;97404.75;3240579;22;20024;-83
2023/04/14 00:52:02;;;;;;;12.38;5.30;;;;;;;7.43;100.00;97398.09;3240501;22;20051;-84
2023/04/14 00:53:19;;;;;;;12.52;5.55;;;;;;;7.41;100.00;97403.38;3241841;22;20027;-85
2023/04/14 00:54:37;;;;;;;12.88;6.05;;;;;;;7.35;100.00;97401.81;3240721;22;20027;-85
2023/04/14 00:55:52;;;;;;;14.95;6.03;;;;;;;6.89;100.00;97396.25;3240239;22;20015;-85
2023/04/14 00:57:08;;;;;;;16.25;6.50;;;;;;;7.12;100.00;97399.91;3223919;23;20361;-85
2023/04/14 00:58:24;;;;;;;16.55;6.75;;;;;;;7.13;100.00;97403.38;3231272;22;20042;-83
2023/04/14 00:59:39;;;;;;;20.05;7.22;;;;;;;7.10;100.00;97399.09;3240585;22;20020;-83
2023/04/14 01:00:57;;;;;;;18.15;6.93;;;;;;;7.04;100.00;97397.53;3241304;22;20034;-85
2023/04/14 01:02:12;;;;;;;20.58;7.10;;;;;;;7.33;100.00;97397.53;3240612;22;20097;-84
2023/04/14 01:03:28;;;;;;;19.98;7.18;;;;;;;7.42;100.00;97397.25;3240990;22;20460;-84
2023/04/14 01:04:44;;;;;;;18.92;8.07;;;;;;;7.31;100.00;97404.53;3240765;22;20477;-84
2023/04/14 01:05:59;;;;;;;15.07;6.28;;;;;;;7.46;100.00;97395.38;3240676;22;20046;-84
2023/04/14 01:07:15;;;;;;;12.13;6.93;;;;;;;7.57;100.00;97400.25;3240464;22;20082;-84
2023/04/14 01:08:31;;;;;;;14.55;6.85;;;;;;;7.55;100.00;97389.88;3240429;22;20023;-84
2023/04/14 01:09:46;;;;;;;15.05;6.55;;;;;;;7.67;100.00;97393.81;3241676;22;20043;-85
2023/04/14 01:11:44;;;;;;;14.88;6.70;;;;;;;7.47;100.00;97391.88;3241793;22;20554;-84
2023/04/14 01:13:20;;;;;;;13.68;6.50;;;;;;;7.61;100.00;97387.09;3240717;22;20026;-84
2023/04/14 01:14:44;;;;;;;11.65;6.03;;;;;;;7.70;100.00;97388.53;3240548;22;20129;-85
2023/04/14 01:16:07;;;;;;;11.93;6.32;;;;;;;7.73;100.00;97396.25;3240481;22;20023;-84
2023/04/14 01:17:30;;;;;;;11.55;5.82;;;;;;;7.76;100.00;97388.31;3241399;22;20026;-84
2023/04/14 01:19:33;;;;;;;11.13;6.30;;;;;;;7.76;100.00;97387.47;3240803;22;20027;-84
2023/04/14 01:20:51;;;;;;;11.23;5.68;;;;;;;7.61;100.00;97384.47;3240302;22;20451;-84
2023/04/14 01:22:09;;;;;;;12.05;5.20;;;;;;;7.51;100.00;97379.59;3241177;22;20025;-84
2023/04/14 01:23:38;;;;;;;9.30;5.57;;;;;;;7.47;100.00;97381.44;3240599;22;20467;-85
2023/04/14 01:25:12;;;;;;;11.57;5.50;;;;;;;7.55;100.00;97373.41;3241491;22;20094;-85
2023/04/14 01:26:29;;;;;;;9.30;5.20;;;;;;;7.62;100.00;97380.09;3240869;22;20506;-85
2023/04/14 01:28:13;;;;;;;12.32;5.18;;;;;;;7.51;100.00;97380.47;3240606;22;20027;-84
2023/04/14 01:29:53;;;;;;;11.93;5.10;;;;;;;7.47;100.00;97373.63;3241310;22;20459;-84
2023/04/14 01:31:11;;;;;;;11.00;5.30;;;;;;;7.41;100.00;97376.47;3240807;22;20043;-84
2023/04/14 01:32:30;;;;;;;10.35;4.57;;;;;;;7.56;100.00;97369.91;3240761;22;20039;-84
2023/04/14 01:33:51;;;;;;;9.57;5.50;;;;;;;7.42;100.00;97367.75;3240419;22;20730;-85
2023/04/14 01:35:16;;;;;;;12.02;5.28;;;;;;;7.44;100.00;97365.94;3224630;23;20123;-85
2023/04/14 01:36:44;;;;;;;10.73;5.35;;;;;;;7.53;100.00;97373.47;3232331;22;20023;-85
2023/04/14 01:38:06;;;;;;;10.23;5.05;;;;;;;7.56;100.00;97372.50;3240856;22;20030;-85
2023/04/14 01:39:27;;;;;;;13.52;5.55;;;;;;;7.59;100.00;97380.22;3241598;22;20047;-85
2023/04/14 01:40:48;;;;;;;13.82;4.68;;;;;;;7.68;100.00;97385.09;3239793;22;20020;-85
2023/04/14 01:42:07;;;;;;;9.88;5.53;;;;;;;7.66;100.00;97376.50;3240352;22;20376;-85
2023/04/14 01:43:29;;;;;;;9.75;4.63;;;;;;;7.62;100.00;97380.09;3240458;22;20023;-85
2023/04/14 01:44:51;;;;;;;9.25;5.10;;;;;;;7.34;100.00;97375.81;3241539;22;20387;-83
2023/04/14 01:46:15;;;;;;;8.90;4.93;;;;;;;7.24;100.00;97382.19;3240729;22;20023;-86
2023/04/14 01:47:33;;;;;;;8.40;5.00;;;;;;;7.36;100.00;97384.41;3240322;22;20417;-85
2023/04/14 01:48:49;;;;;;;10.88;5.07;;;;;;;7.40;100.00;97374.75;3238445;22;20016;-87
2023/04/14 01:50:08;;;;;;;8.43;4.60;;;;;;;7.56;100.00;97370.75;3241159;22;20038;-84
2023/04/14 01:51:26;;;;;;;11.48;4.45;;;;;;;7.43;100.00;97380.72;3240112;22;20015;-86
2023/04/14 01:52:46;;;;;;;8.70;4.63;;;;;;;7.47;100.00;97379.72;3240711;22;20030;-84
2023/04/14 01:54:04;;;;;;;10.50;5.15;;;;;;;7.45;100.00;97375.44;3240574;22;20023;-84
2023/04/14 01:55:22;;;;;;;9.02;4.85;;;;;;;7.48;100.00;97380.56;3241307;22;20020;-85
2023/04/14 01:56:40;;;;;;;9.05;5.43;;;;;;;7.33;100.00;97379.31;3241383;22;20535;-84
2023/04/14 01:57:56;;;;;;;11.40;5.20;;;;;;;7.38;100.00;97380.00;3242216;22;20018;-85
2023/04/14 01:59:13;;;;;;;11.82;5.35;;;;;;;7.23;100.00;97377.88;3242012;22;20103;-84
2023/04/14 02:00:29;;;;;;;14.38;6.05;;;;;;;7.52;100.00;97374.34;3242302;22;20024;-85
2023/04/14 02:01:48;;;;;;;11.13;5.15;;;;;;;7.49;100.00;97370.09;3241827;22;20027;-85
2023/04/14 02:03:05;;;;;;;9.52;4.85;;;;;;;7.37;100.00;97370.50;3242580;22;20065;-84
2023/04/14 02:04:23;;;;;;;10.40;5.28;;;;;;;7.39;100.00;97373.88;3242966;22;20526;-84
2023/04/14 02:05:40;;;;;;;13.07;5.10;;;;;;;7.28;100.00;97370.81;3242303;22;20043;-85
2023/04/14 02:06:59;;;;;;;13.88;5.55;;;;;;;7.38;100.00;97366.97;3242038;22;20019;-85
2023/04/14 02:08:16;;;;;;;10.70;5.22;;;;;;;7.23;100.00;97368.34;3242698;22;20024;-85
2023/04/14 02:09:33;;;;;;;13.13;5.75;;;;;;;7.52;100.00;97373.50;3241716;22;20024;-85
2023/04/14 02:10:51;;;;;;;13.45;5.60;;;;;;;7.40;100.00;97367.78;3242262;22;20398;-84
2023/04/14 02:12:10;;;;;;;13.30;5.78;;;;;;;7.20;100.00;97364.06;3242969;22;20111;-85
2023/04/14 02:13:28;;;;;;;11.95;6.05;;;;;;;7.23;100.00;97362.28;3243010;22;20455;-83
2023/04/14 02:14:45;;;;;;;12.85;6.43;;;;;;;7.34;100.00;97366.25;3242512;22;20086;-85
2023/04/14 02:16:02;;;;;;;13.93;6.32;;;;;;;7.30;100.00;97364.63;3242399;22;20101;-84
2023/04/14 02:17:20;;;;;;;12.52;6.57;;;;;;;7.02;100.00;97368.09;3242358;22;20488;-85
2023/04/14 02:18:38;;;;;;;13.20;6.47;;;;;;;7.05;100.00;97365.44;3241740;22;20020;-85
2023/04/14 02:19:55;;;;;;;14.63;6.50;;;;;;;7.25;100.00;97360.47;3242969;22;20043;-86
2023/04/14 02:21:14;;;;;;;12.20;6.45;;;;;;;7.25;100.00;97373.47;3242363;22;20024;-84
2023/04/14 02:22:29;;;;;;;15.05;6.38;;;;;;;7.17;100.00;97366.78;3242663;22;20030;-84
2023/04/14 02:23:45;;;;;;;12.88;6.65;;;;;;;7.42;100.00;97371.22;3242317;22;20019;-83
2023/04/14 02:25:01;;;;;;;13.63;6.13;;;;;;;7.59;100.00;97378.44;3242353;22;20023;-86
2023/04/14 02:26:22;;;;;;;12.15;6.10;;;;;;;7.58;100.00;97374.13;3242150;22;20024;-85
2023/04/14 02:27:53;;;;;;;14.30;6.50;;;;;;;7.53;100.00;97377.78;3243225;22;20020;-84
2023/04/14 02:29:12;;;;;;;11.85;5.88;;;;;;;7.38;100.00;97372.19;3241881;22;20023;-85
2023/04/14 02:30:38;;;;;;;14.43;6.97;;;;;;;7.16;100.00;97369.44;3243203;22;20020;-84
2023/04/14 02:32:01;;;;;;;11.32;5.70;;;;;;;7.33;100.00;97364.56;3241926;22;20042;-83
2023/04/14 02:33:22;;;;;;;12.90;6.30;;;;;;;7.44;100.00;97364.19;3242182;22;20019;-84
2023/04/14 02:34:46;;;;;;;11.32;5.88;;;;;;;7.51;100.00;97363.97;3242029;22;20019;-83
2023/04/14 02:36:11;;;;;;;14.23;6.07;;;;;;;7.62;100.00;97359.28;3225176;23;20023;-87
2023/04/14 02:37:33;;;;;;;13.20;6.50;;;;;;;7.56;100.00;97364.69;3234409;22;20451;-83
2023/04/14 02:38:55;;;;;;;12.48;6.28;;;;;;;7.48;100.00;97371.00;3241622;22;20027;-84
2023/04/14 02:40:12;;;;;;;;;;;;;;;7.49;100.00;97370.09;3243431;22;20043;-84
2023/04/14 02:41:30;;;;;;;12.05;5.97;;;;;;;7.54;100.00;97367.34;3242274;22;19990;-84
2023/04/14 02:42:51;;;;;;;12.13;5.68;;;;;;;7.56;100.00;97367.31;3241381;22;20026;-85
2023/04/14 02:44:22;;;;;;;14.50;5.75;;;;;;;7.50;100.00;97373.56;3241966;22;20024;-86
2023/04/14 02:45:41;;;;;;;11.38;5.30;;;;;;;7.48;100.00;97371.00;3241948;22;20532;-85
2023/04/14 02:47:02;;;;;;;11.68;5.63;;;;;;;7.17;100.00;97368.53;3242704;22;20660;-85
2023/04/14 02:48:22;;;;;;;11.23;5.70;;;;;;;6.86;100.00;97364.28;3242562;22;20024;-84
2023/04/14 02:49:46;;;;;;;9.45;5.53;;;;;;;7.11;100.00;97358.31;3238248;22;20023;-85
2023/04/14 02:51:03;;;;;;;12.40;5.80;;;;;;;7.03;100.00;97362.00;3242124;22;20049;-85
2023/04/14 02:52:23;;;;;;;12.00;5.40;;;;;;;6.84;100.00;97356.50;3241677;22;20019;-85
2023/04/14 02:53:39;;;;;;;12.63;5.93;;;;;;;7.07;100.00;97361.03;3241081;22;20073;-86
2023/04/14 02:54:55;;;;;;;9.73;5.93;;;;;;;7.02;100.00;97349.06;3240689;22;20030;-85
2023/04/14 02:56:12;;;;;;;11.45;5.43;;;;;;;6.96;100.00;97357.91;3224717;23;20020;-85
2023/04/14 02:57:28;;;;;;;11.75;5.65;;;;;;;7.22;100.00;97356.22;3231721;22;20520;-85
2023/04/14 02:58:45;;;;;;;13.43;5.82;;;;;;;6.83;100.00;97351.38;3242643;22;20183;-85
2023/04/14 03:00:02;;;;;;;10.88;5.88;;;;;;;7.00;100.00;97351.69;3242769;22;20022;-85
2023/04/14 03:01:19;;;;;;;10.00;5.38;;;;;;;7.00;100.00;97356.91;3225447;23;20020;-84
2023/04/14 03:02:36;;;;;;;9.05;5.78;;;;;;;6.99;100.00;97351.75;3232689;22;20023;-85
2023/04/14 03:03:55;;;;;;;12.20;5.95;;;;;;;7.01;100.00;97348.19;3242375;22;20019;-84
2023/04/14 03:05:11;;;;;;;11.15;5.60;;;;;;;6.97;100.00;97343.13;3225241;23;20053;-85
2023/04/14 03:06:28;;;;;;;9.48;5.70;;;;;;;7.10;100.00;97349.63;3231606;22;20020;-84
2023/04/14 03:07:45;;;;;;;11.23;5.75;;;;;;;7.14;100.00;97346.06;3241877;22;20020;-84
2023/04/14 03:09:02;;;;;;;9.00;5.47;;;;;;;7.26;100.00;97346.53;3240146;22;20050;-84
2023/04/14 03:10:19;;;;;;;10.25;6.00;;;;;;;7.23;100.00;97338.84;3240813;22;20027;-84
2023/04/14 03:11:36;;;;;;;11.27;6.13;;;;;;;7.37;100.00;97336.63;3241391;22;20094;-85
2023/04/14 03:12:52;;;;;;;10.75;5.65;;;;;;;7.45;100.00;97336.38;3241796;22;20020;-84
2023/04/14 03:14:09;;;;;;;13.00;5.85;;;;;;;7.41;100.00;97335.66;3240818;22;20020;-85
2023/04/14 03:15:25;;;;;;;11.73;5.63;;;;;;;7.43;100.00;97331.25;3241340;22;20051;-85
2023/04/14 03:16:41;;;;;;;13.18;6.03;;;;;;;7.44;100.00;97325.13;3240947;22;20074;-85
2023/04/14 03:17:58;;;;;;;8.40;5.05;;;;;;;7.49;100.00;97328.41;3240882;22;20531;-85
2023/04/14 03:19:14;;;;;;;12.13;5.72;;;;;;;7.48;100.00;97328.50;3240802;22;20043;-85
2023/04/14 03:20:31;;;;;;;10.05;5.63;;;;;;;7.46;100.00;97318.13;3240456;22;20031;-84
2023/04/14 03:21:49;;;;;;;8.27;5.32;;;;;;;7.39;100.00;97327.03;3240674;22;20102;-85
2023/04/14 03:23:06;;;;;;;12.73;5.82;;;;;;;7.40;100.00;97326.13;3241728;22;20039;-84
2023/04/14 03:24:29;;;;;;;10.30;5.70;;;;;;;7.48;100.00;97313.69;3241105;22;20020;-85
2023/04/14 03:25:46;;;;;;;9.70;5.47;;;;;;;7.51;100.00;97322.31;3240771;22;20023;-84
2023/04/14 03:27:07;;;;;;;9.27;5.80;;;;;;;7.49;100.00;97312.78;3224187;23;20020;-85
2023/04/14 03:28:29;;;;;;;13.52;6.10;;;;;;;7.57;100.00;97314.31;3232666;22;20019;-84
2023/04/14 03:29:47;;;;;;;12.95;6.32;;;;;;;7.50;100.00;97313.66;3241191;22;20456;-84
2023/04/14 03:31:05;;;;;;;11.93;5.70;;;;;;;7.15;100.00;97318.25;3240362;22;20050;-85
2023/04/14 03:32:23;;;;;;;10.45;6.18;;;;;;;7.17;100.00;97317.31;3240847;22;20028;-84
2023/04/14 03:33:42;;;;;;;10.52;6.13;;;;;;;7.12;100.00;97318.38;3240809;22;20020;-84
2023/04/14 03:35:00;;;;;;;10.63;6.15;;;;;;;7.11;100.00;97324.47;3241632;22;20400;-90
2023/04/14 03:36:18;;;;;;;13.35;6.18;;;;;;;7.24;100.00;97317.09;3240678;22;20123;-84
2023/04/14 03:37:38;;;;;;;12.68;6.28;;;;;;;7.26;100.00;97320.50;3240863;22;20364;-84
2023/04/14 03:38:57;;;;;;;9.95;5.97;;;;;;;7.31;100.00;97313.41;3241885;22;20094;-84
2023/04/14 03:40:15;;;;;;;11.20;5.85;;;;;;;7.44;100.00;97312.09;3241414;22;20352;-84
2023/04/14 03:41:34;;;;;;;12.23;5.97;;;;;;;7.35;100.00;97317.63;3240860;22;20147;-85
2023/04/14 03:42:51;;;;;;;11.32;6.10;;;;;;;7.19;100.00;97312.91;3240924;22;20043;-84
2023/04/14 03:44:14;;;;;;;13.55;6.20;;;;;;;7.32;100.00;97318.56;3240912;22;20367;-84
2023/04/14 03:45:31;;;;;;;10.63;5.57;;;;;;;7.15;100.00;97318.25;3240779;22;20098;-83
2023/04/14 03:46:48;;;;;;;9.45;5.80;;;;;;;7.30;100.00;97316.94;3240771;22;20054;-86
2023/04/14 03:48:06;;;;;;;10.52;5.60;;;;;;;7.26;100.00;97323.13;3224151;23;20083;-83
2023/04/14 03:49:24;;;;;;;12.77;5.97;;;;;;;7.38;100.00;97320.09;3231259;22;20023;-84
2023/04/14 03:50:42;;;;;;;9.30;5.93;;;;;;;7.40;100.00;97322.69;3240719;22;20104;-84
2023/04/14 03:52:01;;;;;;;11.20;5.97;;;;;;;7.32;100.00;97328.13;3241718;22;20344;-83
2023/04/14 03:53:18;;;;;;;10.52;5.93;;;;;;;7.47;100.00;97326.75;3241601;22;20111;-83
2023/04/14 03:54:36;;;;;;;10.20;6.20;;;;;;;7.38;100.00;97325.31;3240898;22;20038;-82
2023/04/14 03:55:57;;;;;;;11.27;6.65;;;;;;;7.30;100.00;97327.34;3241170;22;20046;-82
2023/04/14 03:57:16;;;;;;;11.80;5.95;;;;;;;7.26;100.00;97326.59;3240195;22;20024;-84
2023/04/14 03:58:33;;;;;;;12.02;6.20;;;;;;;7.35;100.00;97318.47;3241505;22;20050;-83
2023/04/14 03:59:51;;;;;;;11.50;5.97;;;;;;;7.15;100.00;97316.53;3240386;22;20456;-86
2023/04/14 04:01:07;;;;;;;12.00;5.90;;;;;;;7.31;100.00;97323.84;3238019;22;20452;-81
2023/04/14 04:02:26;;;;;;;11.98;6.32;;;;;;;7.21;100.00;97321.53;3241253;22;20026;-83
2023/04/14 04:03:43;;;;;;;14.77;7.10;;;;;;;7.13;100.00;97320.94;3240762;22;20026;-84
2023/04/14 04:04:59;;;;;;;15.73;6.70;;;;;;;6.98;100.00;97316.19;3240672;22;20023;-83
2023/04/14 04:06:16;;;;;;;13.32;7.18;;;;;;;7.02;100.00;97318.66;3240249;22;20081;-83
2023/04/14 04:07:34;;;;;;;14.45;8.00;;;;;;;7.28;100.00;97311.75;3223970;23;20171;-83
2023/04/14 04:08:52;;;;;;;14.95;6.88;;;;;;;7.22;100.00;97317.19;3230991;22;20074;-83
2023/04/14 04:10:09;;;;;;;14.88;7.25;;;;;;;7.13;100.00;97318.34;3241111;22;20023;-83
2023/04/14 04:11:26;;;;;;;14.35;6.57;;;;;;;7.25;100.00;97319.69;3240800;22;20031;-84
2023/04/14 04:12:46;;;;;;;9.70;5.72;;;;;;;7.10;100.00;97321.00;3240563;22;20043;-86
2023/04/14 04:14:03;;;;;;;11.93;6.55;;;;;;;7.18;100.00;97313.81;3241186;22;20105;-86
2023/04/14 04:15:18;;;;;;;8.63;5.38;;;;;;;7.19;100.00;97327.66;3241830;22;20019;-84
2023/04/14 04:16:37;;;;;;;10.43;6.35;;;;;;;6.89;100.00;97319.94;3241719;22;20525;-85
2023/04/14 04:17:54;;;;;;;12.23;6.45;;;;;;;6.96;100.00;97325.81;3241982;22;20023;-84
2023/04/14 04:19:12;;;;;;;12.77;6.82;;;;;;;7.14;100.00;97327.84;3241344;22;20062;-84
2023/04/14 04:20:30;;;;;;;12.77;7.65;;;;;;;6.93;100.00;97319.81;3240448;22;20459;-84
2023/04/14 04:21:52;;;;;;;10.32;6.07;;;;;;;6.97;100.00;97320.56;3240914;22;20026;-84
2023/04/14 04:23:08;;;;;;;11.70;6.03;;;;;;;6.88;100.00;97326.91;3240930;22;20027;-83
2023/04/14 04:24:26;;;;;;;11.73;6.28;;;;;;;6.86;100.00;97323.50;3241378;22;20108;-85
2023/04/14 04:25:42;;;;;;;12.85;7.05;;;;;;;6.91;100.00;97321.59;3241259;22;20414;-84
2023/04/14 04:27:00;;;;;;;9.35;5.88;;;;;;;6.98;100.00;97324.88;3241133;22;20355;-84
2023/04/14 04:28:15;;;;;;;14.55;7.53;;;;;;;6.93;100.00;97331.97;3240781;22;20028;-83
2023/04/14 04:29:32;;;;;;;13.30;7.22;;;;;;;7.05;100.00;97325.53;3240416;22;20446;-83
2023/04/14 04:30:51;;;;;;;12.48;8.18;;;;;;;7.13;100.00;97322.66;3240549;22;20028;-83
2023/04/14 04:32:07;;;;;;;14.85;8.18;;;;;;;7.18;100.00;97323.38;3240600;22;20073;-83
2023/04/14 04:33:23;;;;;;;11.23;7.40;;;;;;;7.06;100.00;97325.50;3241749;22;20093;-86
2023/04/14 04:34:39;;;;;;;10.68;7.05;;;;;;;7.29;100.00;97320.44;3241795;22;20016;-83
2023/04/14 04:36:00;;;;;;;12.52;8.02;;;;;;;7.13;100.00;97326.16;3240691;22;20065;-83
2023/04/14 04:37:20;;;;;;;13.65;7.43;;;;;;;6.96;100.00;97328.41;3223827;23;20047;-84
2023/04/14 04:38:36;;;;;;;13.65;7.07;;;;;;;7.00;100.00;97328.25;3231430;22;20101;-85
2023/04/14 04:39:55;;;;;;;14.88;8.10;;;;;;;7.19;100.00;97320.72;3240322;22;20019;-84
2023/04/14 04:41:28;;;;;;;13.52;7.38;;;;;;;7.03;100.00;97329.94;3241425;22;20023;-84
2023/04/14 04:42:44;;;;;;;11.32;6.18;;;;;;;6.90;100.00;97327.72;3240874;22;20348;-85
2023/04/14 04:44:00;;;;;;;10.82;7.25;;;;;;;7.06;100.00;97329.81;3240919;22;20023;-85
2023/04/14 04:45:35;;;;;;;14.10;7.47;;;;;;;7.24;100.00;97325.78;3224790;23;20094;-85
2023/04/14 04:46:55;;;;;;;14.60;8.02;;;;;;;7.31;100.00;97329.03;3235828;22;20360;-85
2023/04/14 04:48:10;;;;;;;14.75;7.88;;;;;;;7.18;100.00;97332.03;3241066;22;20059;-83
2023/04/14 04:49:26;;;;;;;15.32;7.75;;;;;;;7.27;100.00;97330.88;3240628;22;20024;-83
2023/04/14 04:50:41;;;;;;;12.60;7.40;;;;;;;7.12;100.00;97332.22;3223808;23;20115;-84
2023/04/14 04:51:58;;;;;;;13.23;7.18;;;;;;;7.06;100.00;97327.22;3230490;22;20538;-87
2023/04/14 04:53:14;;;;;;;12.25;7.47;;;;;;;7.09;100.00;97328.88;3240597;22;20034;-86
2023/04/14 04:54:29;;;;;;;12.18;7.13;;;;;;;7.11;100.00;97332.28;3241587;22;20019;-87
2023/04/14 04:55:45;;;;;;;12.02;6.75;;;;;;;7.04;100.00;97326.44;3240652;22;20026;-87
2023/04/14 04:57:00;;;;;;;11.80;7.10;;;;;;;7.19;100.00;97331.13;3241395;22;20511;-87
2023/04/14 04:58:16;;;;;;;14.50;7.38;;;;;;;7.43;100.00;97333.84;3241703;22;20019;-88
2023/04/14 04:59:32;;;;;;;12.65;6.82;;;;;;;7.10;100.00;97328.81;3224285;23;20098;-87
2023/04/14 05:00:47;;;;;;;11.80;7.07;;;;;;;6.97;100.00;97332.72;3215107;23;20016;-88
2023/04/14 05:02:03;;;;;;;11.77;7.40;;;;;;;7.13;100.00;97330.47;3230739;22;20020;-87
2023/04/14 05:03:18;;;;;;;13.60;7.45;;;;;;;7.39;100.00;97324.41;3241345;22;20023;-88
2023/04/14 05:04:34;;;;;;;12.65;7.50;;;;;;;7.54;100.00;97324.81;3241171;22;20104;-87
2023/04/14 05:05:50;;;;;;;13.63;7.10;;;;;;;7.44;100.00;97321.66;3237983;22;20020;-89
2023/04/14 05:07:05;;;;;;;12.70;7.05;;;;;;;7.24;100.00;97330.13;3237969;22;20352;-88
2023/04/14 05:08:22;;;;;;;13.80;7.40;;;;;;;7.51;100.00;97319.69;3241086;22;20019;-87
2023/04/14 05:09:37;;;;;;;14.15;7.55;;;;;;;7.62;100.00;97313.25;3239976;22;20073;-88
2023/04/14 05:10:53;;;;;;;12.27;7.00;;;;;;;7.40;100.00;97318.31;3240514;22;20461;-88
2023/04/14 05:12:08;;;;;;;11.85;6.82;;;;;;;7.11;100.00;97317.50;3240641;22;20535;-88
2023/04/14 05:13:24;;;;;;;13.07;7.18;;;;;;;7.44;100.00;97311.25;3223664;23;20024;-87
2023/04/14 05:14:40;;;;;;;9.68;6.30;;;;;;;7.20;100.00;97322.41;3230496;22;20043;-87
2023/04/14 05:16:08;;;;;;;10.35;6.15;;;;;;;7.20;100.00;97313.78;3240849;22;20015;-87
2023/04/14 05:17:23;;;;;;;14.95;6.65;;;;;;;7.31;100.00;97310.81;3223941;23;20544;-88
2023/04/14 05:18:40;;;;;;;10.55;5.47;;;;;;;7.15;100.00;97313.94;3230168;22;20305;-86
2023/04/14 05:19:56;;;;;;;12.35;6.93;;;;;;;7.28;100.00;97313.53;3240073;22;20023;-86
2023/04/14 05:21:13;;;;;;;10.95;6.97;;;;;;;7.35;100.00;97305.47;3239741;22;20023;-86
2023/04/14 05:22:28;;;;;;;11.63;6.93;;;;;;;7.63;100.00;97312.34;3240417;22;20024;-88
2023/04/14 05:23:45;;;;;;;12.43;7.40;;;;;;;7.76;100.00;97304.09;3222960;23;20023;-87
2023/04/14 05:25:00;;;;;;;10.68;6.97;;;;;;;7.65;100.00;97303.63;3231465;22;20023;-87
2023/04/14 05:26:16;;;;;;;12.75;6.85;;;;;;;7.63;100.00;97295.84;3241041;22;20016;-86
2023/04/14 05:27:31;;;;;;;13.00;7.22;;;;;;;7.85;100.00;97295.09;3239680;22;20042;-90
2023/04/14 05:28:47;;;;;;;14.70;7.47;;;;;;;7.68;100.00;97291.31;3239702;22;20023;-87
2023/04/14 05:30:02;;;;;;;11.27;6.35;;;;;;;7.49;100.00;97291.13;3240962;22;20047;-88
2023/04/14 05:31:19;;;;;;;9.98;6.40;;;;;;;7.41;100.00;97294.00;3223655;23;20023;-88
2023/04/14 05:32:35;;;;;;;11.38;6.10;;;;;;;7.38;100.00;97293.25;3214679;23;20027;-88
2023/04/14 05:33:50;;;;;;;12.07;6.93;;;;;;;7.52;100.00;97300.56;3230494;22;20061;-87
2023/04/14 05:35:07;;;;;;;11.73;6.70;;;;;;;7.48;100.00;97300.69;3240065;22;20459;-87
2023/04/14 05:36:22;;;;;;;12.27;7.97;;;;;;;7.46;100.00;97307.69;3240291;22;20023;-87
2023/04/14 05:37:38;;;;;;;13.10;7.63;;;;;;;7.39;100.00;97307.97;3240324;22;20054;-87
2023/04/14 05:38:53;;;;;;;11.60;6.90;;;;;;;7.49;100.00;97309.34;3240312;22;20085;-87
2023/04/14 05:40:09;;;;;;;13.88;7.40;;;;;;;7.51;100.00;97314.50;3240179;22;20023;-88
2023/04/14 05:41:25;;;;;;;12.90;7.38;;;;;;;7.39;100.00;97329.63;3240052;22;20031;-87
2023/04/14 05:42:41;;;;;;;12.68;6.85;;;;;;;7.48;100.00;97318.06;3240367;22;20015;-87
2023/04/14 05:43:57;;;;;;;9.13;6.53;;;;;;;7.52;100.00;97316.19;3240542;22;20229;-89
2023/04/14 05:45:12;;;;;;;12.60;7.20;;;;;;;7.58;100.00;97316.84;3239981;22;20027;-89
2023/04/14 05:46:28;;;;;;;8.45;5.10;;;;;;;7.62;100.00;97318.47;3241146;22;20192;-92
2023/04/14 05:47:43;;;;;;;6.10;3.05;;;;;;;7.18;100.00;97319.03;3241127;22;20101;-89
2023/04/14 05:48:59;;;;;;;8.13;4.93;;;;;;;7.65;100.00;97317.47;3239839;22;20050;-81
2023/04/14 05:50:15;;;;;;;12.02;5.05;;;;;;;7.69;100.00;97313.88;3240344;22;20027;-81
2023/04/14 05:51:31;;;;;;;8.80;4.53;;;;;;;7.39;100.00;97316.59;3240332;22;20027;-81
2023/04/14 05:52:47;;;;;;;5.78;3.65;;;;;;;7.61;100.00;97315.88;3240444;22;20019;-81
2023/04/14 05:54:03;;;;;;;6.63;4.07;;;;;;;7.59;100.00;97325.50;3240437;22;20024;-81
2023/04/14 05:55:19;;;;;;;9.00;4.10;;;;;;;7.66;100.00;97318.34;3239675;22;20032;-81
2023/04/14 05:56:34;;;;;;;5.43;3.78;;;;;;;7.61;100.00;97318.50;3240554;22;20099;-81
2023/04/14 05:57:51;;;;;;;7.97;3.65;;;;;;;7.71;100.00;97316.41;3241174;22;20023;-81
2023/04/14 05:59:07;;;;;;;8.93;4.05;;;;;;;7.67;100.00;97310.47;3240298;22;20020;-81
2023/04/14 06:00:24;;;;;;;6.60;3.97;;;;;;;7.83;100.00;97309.94;3240949;22;20020;-81
2023/04/14 06:01:39;;;;;;;7.32;3.60;;;;;;;7.67;100.00;97307.03;3223716;23;20568;-81
2023/04/14 06:02:55;;;;;;;5.93;3.85;;;;;;;7.71;100.00;97312.06;3223761;23;20012;-81
2023/04/14 06:04:10;;;;;;;4.90;3.72;;;;;;;7.69;100.00;97307.81;3230224;22;20800;-80
2023/04/14 06:05:26;;;;;;;6.22;3.70;;;;;;;7.88;100.00;97308.84;3240454;22;20016;-80